Time;durP1;ratioP1;P1;durP2;ratioP2;P2;SDS_P1;SDS_P2;PMS_P1;PMS_P2;Temp;Humidity;BMP_temperature;BMP_pressure;BME280_temperature;BME280_humidity;BME280_pressure;Samples;Min_cycle;Max_cycle;Signal;HPM_P1;HPM_P2
2023/07/31 00:00:15;;;;;;;8.55;3.80;;;16.70;99.90;;;;;;5029998;28;20174;-90
2023/07/31 00:02:42;;;;;;;9.35;4.22;;;16.70;99.90;;;;;;5046544;28;20039;-89
2023/07/31 00:05:09;;;;;;;9.95;3.90;;;16.70;99.90;;;;;;5044648;28;20032;-92
2023/07/31 00:07:34;;;;;;;9.20;4.30;;;16.70;99.90;;;;;;5048653;28;20119;-91
2023/07/31 00:10:00;;;;;;;8.55;3.70;;;16.60;99.90;;;;;;5029518;28;20155;-91
2023/07/31 00:12:26;;;;;;;7.65;3.47;;;16.60;99.90;;;;;;5024587;28;20094;-90
2023/07/31 00:14:51;;;;;;;9.45;3.75;;;16.60;99.90;;;;;;5047664;28;20062;-91
2023/07/31 00:17:17;;;;;;;8.15;3.38;;;16.60;99.90;;;;;;5032985;28;20033;-91
2023/07/31 00:19:43;;;;;;;8.85;3.67;;;16.60;99.90;;;;;;5049528;28;20028;-91
2023/07/31 00:22:09;;;;;;;9.18;3.60;;;16.50;99.90;;;;;;5048072;28;20182;-90
2023/07/31 00:24:34;;;;;;;7.80;3.50;;;16.50;99.90;;;;;;5024275;28;20071;-91
2023/07/31 00:27:00;;;;;;;7.75;3.20;;;16.50;99.90;;;;;;5048477;28;20060;-90
2023/07/31 00:29:26;;;;;;;8.63;3.53;;;16.40;99.90;;;;;;5014302;28;20121;-91
2023/07/31 00:31:51;;;;;;;7.88;3.17;;;16.40;99.90;;;;;;5014053;28;20041;-88
2023/07/31 00:34:17;;;;;;;10.65;3.25;;;16.40;99.90;;;;;;5025048;28;20045;-93
2023/07/31 00:36:43;;;;;;;7.97;3.30;;;16.20;99.90;;;;;;5032188;28;20040;-90
2023/07/31 00:39:08;;;;;;;8.32;3.20;;;16.30;99.90;;;;;;5015117;28;20111;-90
2023/07/31 00:41:34;;;;;;;7.63;3.28;;;16.30;99.90;;;;;;5062969;28;20117;-89
2023/07/31 00:44:00;;;;;;;8.50;3.40;;;;;;;;;;5013718;28;20417;-90
2023/07/31 00:46:26;;;;;;;7.47;2.90;;;16.30;99.90;;;;;;5043775;28;20036;-90
2023/07/31 00:48:51;;;;;;;7.55;3.00;;;16.30;99.90;;;;;;5028975;28;20045;-89
2023/07/31 00:51:17;;;;;;;7.40;2.97;;;16.30;99.90;;;;;;5030462;28;20511;-91
2023/07/31 00:53:43;;;;;;;7.25;2.80;;;16.20;99.90;;;;;;5014481;28;20127;-89
2023/07/31 00:56:10;;;;;;;7.88;3.25;;;16.20;99.90;;;;;;5046382;28;20039;-91
2023/07/31 00:58:36;;;;;;;8.00;3.08;;;16.20;99.90;;;;;;5078056;28;20105;-91
2023/07/31 01:01:02;;;;;;;8.23;3.38;;;16.20;99.90;;;;;;5011654;28;20044;-90
2023/07/31 01:03:28;;;;;;;7.30;3.08;;;16.20;99.90;;;;;;5012508;28;20567;-89
2023/07/31 01:06:16;;;;;;;8.73;3.10;;;16.10;99.90;;;;;;5027985;28;20202;-89
2023/07/31 01:08:58;;;;;;;7.68;2.85;;;16.10;99.90;;;;;;5059688;28;20041;-91
2023/07/31 01:11:52;;;;;;;7.43;3.20;;;16.10;99.90;;;;;;5042896;28;20047;-90
2023/07/31 01:14:17;;;;;;;7.90;3.10;;;16.10;99.90;;;;;;5059616;28;20029;-91
2023/07/31 01:16:43;;;;;;;7.75;3.08;;;16.10;99.90;;;;;;5046113;28;20435;-92
2023/07/31 01:19:11;;;;;;;7.97;2.90;;;16.10;99.90;;;;;;5046469;28;20032;-93
2023/07/31 01:21:58;;;;;;;7.32;3.08;;;16.00;99.90;;;;;;5046007;28;20033;-92
2023/07/31 01:24:42;;;;;;;7.22;2.97;;;16.10;99.90;;;;;;5046606;28;20094;-90
2023/07/31 01:27:21;;;;;;;8.48;2.95;;;16.00;99.90;;;;;;5041707;28;20276;-91
2023/07/31 01:30:10;;;;;;;8.55;2.97;;;16.00;99.90;;;;;;5045382;28;20495;-91
2023/07/31 01:32:38;;;;;;;8.10;2.90;;;16.00;99.90;;;;;;5045562;28;20093;-91
2023/07/31 01:35:05;;;;;;;7.43;2.90;;;16.00;99.90;;;;;;5030616;28;20032;-91
2023/07/31 01:37:30;;;;;;;7.22;2.97;;;16.00;99.90;;;;;;5043985;28;20108;-91
2023/07/31 01:39:56;;;;;;;7.68;2.90;;;16.00;99.90;;;;;;5029517;28;20534;-93
2023/07/31 01:42:22;;;;;;;8.05;3.10;;;16.00;99.90;;;;;;5027355;28;20040;-93
2023/07/31 01:44:47;;;;;;;7.65;2.90;;;16.00;99.90;;;;;;5030140;28;20119;-90
2023/07/31 01:47:13;;;;;;;7.97;3.20;;;16.00;99.90;;;;;;5061347;28;20040;-92
2023/07/31 01:49:39;;;;;;;7.20;3.22;;;16.00;99.90;;;;;;5043628;28;20544;-91
2023/07/31 01:52:05;;;;;;;10.63;2.95;;;16.00;99.90;;;;;;5030011;28;20133;-93
2023/07/31 01:54:31;;;;;;;6.15;2.40;;;16.00;99.90;;;;;;5025950;28;20040;-91
2023/07/31 01:56:56;;;;;;;6.38;2.30;;;16.00;99.90;;;;;;5047397;28;20059;-92
2023/07/31 01:59:22;;;;;;;7.15;2.60;;;16.10;99.90;;;;;;5015412;28;20049;-93
2023/07/31 02:01:48;;;;;;;6.45;2.50;;;16.00;99.90;;;;;;5028996;28;20064;-90
2023/07/31 02:04:13;;;;;;;5.70;2.30;;;16.00;99.90;;;;;;5046338;28;20065;-92
2023/07/31 02:06:39;;;;;;;6.18;2.47;;;16.00;99.90;;;;;;5063069;28;20051;-92
2023/07/31 02:09:05;;;;;;;5.93;2.05;;;16.00;99.90;;;;;;5017263;28;20032;-91
2023/07/31 02:11:33;;;;;;;5.95;2.30;;;16.00;99.90;;;;;;5015398;28;20032;-91
2023/07/31 02:13:59;;;;;;;5.80;2.20;;;16.00;99.90;;;;;;5048266;28;20052;-93
2023/07/31 02:16:25;;;;;;;6.60;2.10;;;16.00;99.90;;;;;;5047551;28;20039;-91
2023/07/31 02:18:50;;;;;;;6.18;2.10;;;16.00;99.90;;;;;;5015602;28;20040;-90
2023/07/31 02:21:16;;;;;;;5.03;1.90;;;16.00;99.90;;;;;;5028166;28;20038;-92
2023/07/31 02:23:42;;;;;;;5.35;2.03;;;15.90;99.90;;;;;;5032255;28;20044;-92
2023/07/31 02:26:07;;;;;;;5.55;2.00;;;16.00;99.90;;;;;;5032421;28;20132;-92
2023/07/31 02:28:33;;;;;;;5.15;1.90;;;16.00;99.90;;;;;;5013148;28;20105;-92
2023/07/31 02:30:59;;;;;;;5.28;2.08;;;15.90;99.90;;;;;;5032450;28;20469;-91
2023/07/31 02:33:25;;;;;;;7.28;1.90;;;16.00;99.90;;;;;;5034360;28;20040;-92
2023/07/31 02:35:50;;;;;;;4.25;1.65;;;15.90;99.90;;;;;;5047823;28;20493;-91
2023/07/31 02:38:16;;;;;;;4.50;1.80;;;15.90;99.90;;;;;;5048284;28;20385;-92
2023/07/31 02:40:42;;;;;;;5.60;1.90;;;16.00;99.90;;;;;;5032020;28;20170;-91
2023/07/31 02:43:08;;;;;;;5.15;1.70;;;15.90;99.90;;;;;;5013614;28;20033;-92
2023/07/31 02:45:34;;;;;;;4.18;1.60;;;15.90;99.90;;;;;;5048874;28;20024;-91
2023/07/31 02:48:00;;;;;;;4.70;1.80;;;15.90;99.90;;;;;;5034382;28;21463;-93
2023/07/31 02:50:27;;;;;;;3.42;1.40;;;15.90;99.90;;;;;;5029984;28;20125;-92
2023/07/31 02:52:53;;;;;;;3.10;1.40;;;15.90;99.90;;;;;;5039110;28;20048;-92
2023/07/31 02:55:18;;;;;;;2.20;1.40;;;15.90;99.90;;;;;;5038046;28;20117;-93
2023/07/31 02:57:44;;;;;;;5.13;1.70;;;15.90;99.90;;;;;;5037281;28;21477;-91
2023/07/31 03:00:10;;;;;;;3.78;1.50;;;15.90;99.90;;;;;;5036218;28;20051;-92
2023/07/31 03:02:36;;;;;;;3.10;1.40;;;15.90;99.90;;;;;;5021767;28;20043;-92
2023/07/31 03:05:02;;;;;;;2.38;1.33;;;15.90;99.90;;;;;;5053148;28;20032;-91
2023/07/31 03:07:28;;;;;;;3.90;1.33;;;15.90;99.90;;;;;;5037741;28;20067;-92
2023/07/31 03:09:54;;;;;;;5.65;1.63;;;15.90;99.90;;;;;;5051949;28;20044;-91
2023/07/31 03:12:19;;;;;;;3.90;1.70;;;15.90;99.90;;;;;;5036543;28;20153;-92
2023/07/31 03:14:45;;;;;;;6.22;2.08;;;15.90;99.90;;;;;;5038586;28;20121;-93
2023/07/31 03:17:11;;;;;;;6.35;1.60;;;15.90;99.90;;;;;;5054596;28;20032;-94
2023/07/31 03:19:37;;;;;;;5.90;1.63;;;15.90;99.90;;;;;;5036806;28;20101;-94
2023/07/31 03:22:03;;;;;;;5.03;1.60;;;15.90;99.90;;;;;;5017001;28;20477;-92
2023/07/31 03:24:29;;;;;;;4.20;1.60;;;15.90;99.90;;;;;;5020130;28;20050;-93
2023/07/31 03:26:55;;;;;;;3.70;1.50;;;15.90;99.90;;;;;;5052332;28;20078;-91
2023/07/31 03:29:21;;;;;;;2.53;1.20;;;15.80;99.90;;;;;;5037843;28;20047;-92
2023/07/31 03:31:46;;;;;;;3.72;1.52;;;15.90;99.90;;;;;;5017220;28;20082;-93
2023/07/31 03:34:12;;;;;;;6.05;2.17;;;15.90;99.90;;;;;;5065407;28;20036;-92
2023/07/31 03:36:38;;;;;;;3.05;1.33;;;15.90;99.90;;;;;;5050748;28;20058;-93
2023/07/31 03:39:03;;;;;;;3.38;1.40;;;15.90;99.90;;;;;;5020708;28;20048;-92
2023/07/31 03:41:29;;;;;;;3.90;1.50;;;15.90;99.90;;;;;;5034989;28;20032;-92
2023/07/31 03:43:57;;;;;;;3.33;1.50;;;15.80;99.90;;;;;;5033039;28;20068;-91
2023/07/31 03:46:24;;;;;;;2.72;1.48;;;15.90;99.90;;;;;;5035792;28;20046;-91
2023/07/31 03:48:50;;;;;;;3.25;1.55;;;15.90;99.90;;;;;;5049582;28;20048;-92
2023/07/31 03:51:17;;;;;;;3.75;1.35;;;15.90;99.90;;;;;;5053675;28;20063;-92
2023/07/31 03:53:43;;;;;;;3.65;1.30;;;16.10;99.90;;;;;;5050535;28;20070;-91
2023/07/31 03:56:09;;;;;;;3.08;1.40;;;15.90;99.90;;;;;;5051847;28;20032;-93
2023/07/31 03:58:36;;;;;;;3.65;1.40;;;15.90;99.90;;;;;;5069980;28;20046;-92
2023/07/31 04:01:03;;;;;;;2.17;1.20;;;15.90;99.90;;;;;;5051813;28;20044;-92
2023/07/31 04:03:29;;;;;;;4.60;1.60;;;15.90;99.90;;;;;;5049128;28;20576;-93
2023/07/31 04:05:57;;;;;;;4.00;1.42;;;15.90;99.90;;;;;;5036492;28;20127;-92
2023/07/31 04:08:23;;;;;;;4.45;1.70;;;15.90;99.90;;;;;;5051516;28;20039;-92
2023/07/31 04:10:49;;;;;;;4.47;1.73;;;15.90;99.90;;;;;;5036690;28;20373;-91
2023/07/31 04:13:15;;;;;;;6.07;1.80;;;15.90;99.90;;;;;;5051360;28;20039;-91
2023/07/31 04:15:41;;;;;;;6.60;1.70;;;15.80;99.90;;;;;;5016327;28;20039;-92
2023/07/31 04:18:07;;;;;;;5.75;1.80;;;15.80;99.90;;;;;;5050737;28;20031;-92
2023/07/31 04:20:32;;;;;;;7.00;1.60;;;15.90;99.90;;;;;;5036199;28;20404;-92
2023/07/31 04:22:58;;;;;;;4.53;1.52;;;15.90;99.90;;;;;;5052260;28;20047;-91
2023/07/31 04:25:27;;;;;;;8.00;1.95;;;15.90;99.90;;;;;;5049766;28;20036;-92
2023/07/31 04:27:52;;;;;;;4.28;1.65;;;15.70;99.90;;;;;;5052280;28;20100;-91
2023/07/31 04:30:18;;;;;;;5.80;1.60;;;15.90;99.90;;;;;;5031480;28;20032;-91
2023/07/31 04:32:44;;;;;;;5.85;1.92;;;15.90;99.90;;;;;;5022040;28;20033;-92
2023/07/31 04:35:10;;;;;;;3.85;1.48;;;15.90;99.90;;;;;;5029189;28;20095;-92
2023/07/31 04:37:36;;;;;;;4.78;1.80;;;15.90;99.90;;;;;;5034231;28;20044;-91
2023/07/31 04:40:02;;;;;;;4.97;1.50;;;15.90;99.90;;;;;;5034209;28;20036;-92
2023/07/31 04:42:28;;;;;;;4.10;1.40;;;15.90;99.90;;;;;;5035374;28;20113;-91
2023/07/31 04:44:53;;;;;;;4.88;1.75;;;16.40;99.90;;;;;;5016946;28;20046;-91
2023/07/31 04:47:19;;;;;;;4.57;1.70;;;16.00;99.90;;;;;;5033150;28;20537;-91
2023/07/31 04:49:45;;;;;;;4.75;1.60;;;16.00;99.90;;;;;;5048570;28;20575;-91
2023/07/31 04:52:11;;;;;;;4.88;1.50;;;16.00;99.90;;;;;;5048826;28;20107;-92
2023/07/31 04:54:37;;;;;;;2.83;1.20;;;16.00;99.90;;;;;;5028500;28;20480;-92
2023/07/31 04:57:03;;;;;;;3.45;1.30;;;16.00;99.90;;;;;;5026269;28;20032;-92
2023/07/31 04:59:28;;;;;;;3.13;1.30;;;16.90;99.90;;;;;;5061654;28;20077;-92
2023/07/31 05:01:54;;;;;;;3.58;1.42;;;16.00;99.90;;;;;;5012542;28;20051;-91
2023/07/31 05:04:20;;;;;;;4.07;1.50;;;15.90;99.90;;;;;;5028004;28;20044;-92
2023/07/31 05:06:46;;;;;;;4.50;1.48;;;16.00;99.90;;;;;;5057967;28;20047;-93
2023/07/31 05:09:11;;;;;;;2.97;1.40;;;16.00;99.90;;;;;;5035007;28;20032;-92
2023/07/31 05:11:37;;;;;;;2.67;1.40;;;16.00;99.90;;;;;;5017430;28;20036;-93
2023/07/31 05:14:03;;;;;;;3.97;1.30;;;16.00;99.90;;;;;;5059892;28;20040;-92
2023/07/31 05:16:29;;;;;;;3.72;1.30;;;16.00;99.90;;;;;;5037958;28;20069;-92
2023/07/31 05:18:54;;;;;;;3.17;1.35;;;16.00;99.90;;;;;;5031431;28;20048;-93
2023/07/31 05:21:20;;;;;;;3.28;1.23;;;15.90;99.90;;;;;;5035589;28;20040;-93
2023/07/31 05:23:47;;;;;;;5.05;1.60;;;15.90;99.90;;;;;;5055071;28;20121;-92
2023/07/31 05:26:13;;;;;;;2.65;1.30;;;16.00;99.90;;;;;;5024410;28;20072;-93
2023/07/31 05:28:47;;;;;;;4.45;1.45;;;16.00;99.90;;;;;;5056119;28;20046;-94
2023/07/31 05:31:13;;;;;;;5.43;1.70;;;15.90;99.90;;;;;;5029494;28;20680;-94
2023/07/31 05:33:39;;;;;;;5.55;1.75;;;16.00;99.90;;;;;;5034098;28;20067;-92
2023/07/31 05:36:04;;;;;;;5.40;1.70;;;16.00;99.90;;;;;;5028525;28;20250;-89
2023/07/31 05:38:30;;;;;;;6.55;1.88;;;16.00;99.90;;;;;;5062310;28;20047;-92
2023/07/31 05:40:56;;;;;;;3.90;1.60;;;16.00;99.90;;;;;;5017682;28;20035;-91
2023/07/31 05:43:22;;;;;;;6.10;1.70;;;16.00;99.90;;;;;;5050589;28;20084;-91
2023/07/31 05:45:47;;;;;;;5.20;1.80;;;16.00;99.90;;;;;;5016749;28;20043;-93
2023/07/31 05:48:13;;;;;;;4.18;1.60;;;16.00;99.90;;;;;;5033444;28;20036;-92
2023/07/31 05:50:50;;;;;;;4.88;1.67;;;16.10;99.90;;;;;;5049142;28;20085;-95
2023/07/31 05:53:16;;;;;;;4.07;1.60;;;16.10;99.90;;;;;;5039117;28;20036;-89
2023/07/31 05:55:44;;;;;;;3.55;1.35;;;16.10;99.90;;;;;;5010098;28;20142;-92
2023/07/31 05:58:10;;;;;;;2.78;1.45;;;16.10;99.90;;;;;;5063687;28;20055;-92
2023/07/31 06:00:44;;;;;;;3.40;1.50;;;14.70;99.90;;;;;;5007546;28;20226;-92
2023/07/31 06:03:13;;;;;;;6.00;1.80;;;16.00;99.90;;;;;;5012839;28;20581;-93
2023/07/31 06:05:38;;;;;;;3.42;1.40;;;16.10;99.90;;;;;;5000717;28;20029;-92
2023/07/31 06:08:04;;;;;;;3.55;1.40;;;16.20;99.90;;;;;;5036819;28;21826;-89
2023/07/31 06:10:30;;;;;;;4.03;1.50;;;16.20;99.90;;;;;;5043048;28;20029;-92
2023/07/31 06:13:05;;;;;;;3.17;1.40;;;16.20;99.90;;;;;;5011338;28;20037;-92
2023/07/31 06:15:30;;;;;;;4.30;1.65;;;16.40;99.90;;;;;;5044854;28;20051;-94
2023/07/31 06:17:57;;;;;;;6.88;1.73;;;16.20;99.90;;;;;;5043368;28;20040;-92
2023/07/31 06:20:23;;;;;;;6.07;1.60;;;;;;;;;;5039536;28;20040;-92
2023/07/31 06:22:49;;;;;;;6.70;1.80;;;16.70;99.90;;;;;;5045785;28;20147;-91
2023/07/31 06:25:15;;;;;;;4.38;1.67;;;14.40;99.90;;;;;;5043186;28;20135;-91
2023/07/31 06:27:40;;;;;;;5.43;1.90;;;16.40;99.90;;;;;;5029628;28;20040;-91
2023/07/31 06:30:07;;;;;;;7.88;1.95;;;16.50;99.90;;;;;;5048102;28;20040;-93
2023/07/31 06:32:32;;;;;;;7.93;2.53;;;16.50;99.90;;;;;;5014650;28;20033;-92
2023/07/31 06:34:58;;;;;;;10.45;2.70;;;16.50;99.90;;;;;;5032659;28;20040;-94
2023/07/31 06:37:24;;;;;;;9.00;2.53;;;16.50;99.90;;;;;;5046008;28;20036;-92
2023/07/31 06:39:50;;;;;;;10.02;2.60;;;16.60;99.90;;;;;;5048688;28;20736;-91
2023/07/31 06:42:18;;;;;;;10.10;2.83;;;16.60;99.90;;;;;;5033287;28;20129;-94
2023/07/31 06:44:44;;;;;;;12.50;3.85;;;16.70;99.90;;;;;;5032841;28;20128;-91
2023/07/31 06:47:09;;;;;;;12.52;3.80;;;16.70;99.90;;;;;;5050532;28;20127;-90
2023/07/31 06:49:38;;;;;;;12.95;4.10;;;16.80;99.90;;;;;;5050791;28;20575;-95
2023/07/31 06:52:04;;;;;;;12.68;4.15;;;16.80;99.90;;;;;;5063431;28;20039;-93
2023/07/31 06:54:33;;;;;;;15.77;5.03;;;16.80;99.90;;;;;;5052564;28;20040;-89
2023/07/31 06:57:03;;;;;;;16.92;4.93;;;16.90;99.90;;;;;;5044757;28;20094;-91
2023/07/31 06:59:29;;;;;;;15.70;5.30;;;17.00;99.90;;;;;;5043362;28;20496;-92
2023/07/31 07:01:55;;;;;;;14.50;5.28;;;17.00;99.90;;;;;;5041675;28;20130;-90
2023/07/31 07:04:23;;;;;;;16.95;5.50;;;17.20;99.90;;;;;;5047078;28;20070;-91
2023/07/31 07:07:07;;;;;;;15.65;5.35;;;17.30;99.90;;;;;;5051777;28;20040;-92
2023/07/31 07:09:32;;;;;;;16.70;5.85;;;17.20;99.90;;;;;;5035833;28;20031;-91
2023/07/31 07:11:58;;;;;;;16.60;6.00;;;17.30;99.90;;;;;;5066007;28;20048;-92
2023/07/31 07:14:24;;;;;;;21.92;5.93;;;17.30;99.90;;;;;;5034830;28;20105;-93
2023/07/31 07:16:53;;;;;;;17.65;6.15;;;17.40;99.90;;;;;;5029507;28;20671;-90
2023/07/31 07:19:19;;;;;;;19.88;7.15;;;17.40;99.90;;;;;;5031366;28;20040;-90
2023/07/31 07:21:44;;;;;;;18.92;6.60;;;17.40;99.90;;;;;;5034663;28;20044;-90
2023/07/31 07:24:10;;;;;;;17.23;6.18;;;17.50;99.90;;;;;;5038147;28;20642;-88
2023/07/31 07:26:36;;;;;;;20.58;6.70;;;15.00;99.90;;;;;;5010223;28;20032;-89
2023/07/31 07:29:02;;;;;;;25.27;6.68;;;17.40;99.90;;;;;;5043739;28;20575;-94
2023/07/31 07:31:28;;;;;;;16.48;6.30;;;17.50;99.90;;;;;;5036494;28;20433;-90
2023/07/31 07:33:54;;;;;;;19.15;6.57;;;17.40;99.90;;;;;;5035496;28;20051;-90
2023/07/31 07:36:20;;;;;;;18.92;6.25;;;17.60;99.90;;;;;;5066686;28;20485;-92
2023/07/31 07:38:45;;;;;;;17.60;6.80;;;17.40;99.90;;;;;;5034972;28;20041;-91
2023/07/31 07:41:11;;;;;;;16.50;5.60;;;17.20;99.90;;;;;;5066611;28;20385;-90
2023/07/31 07:43:37;;;;;;;16.88;5.78;;;17.30;99.90;;;;;;5069413;28;20036;-92
2023/07/31 07:46:02;;;;;;;15.35;5.72;;;17.30;99.90;;;;;;5052863;28;20050;-92
2023/07/31 07:48:31;;;;;;;14.95;4.80;;;17.30;99.90;;;;;;5035745;28;20035;-91
2023/07/31 07:50:57;;;;;;;13.25;4.53;;;17.30;99.90;;;;;;5053270;28;20035;-91
2023/07/31 07:53:26;;;;;;;10.15;3.88;;;17.30;99.90;;;;;;5035088;28;20508;-94
2023/07/31 07:55:57;;;;;;;13.15;4.13;;;17.30;99.90;;;;;;5043509;28;20048;-92
2023/07/31 07:58:28;;;;;;;11.93;3.60;;;17.20;99.90;;;;;;5044006;28;20049;-96
2023/07/31 08:00:54;;;;;;;12.27;4.25;;;17.20;99.90;;;;;;5020399;28;20080;-94
2023/07/31 08:03:20;;;;;;;8.73;2.95;;;17.20;99.90;;;;;;5049913;28;20041;-91
2023/07/31 08:05:48;;;;;;;9.88;3.05;;;17.20;99.90;;;;;;5040358;28;20040;-92
2023/07/31 08:08:18;;;;;;;10.88;3.13;;;17.20;99.90;;;;;;5014681;28;20200;-91
2023/07/31 08:10:44;;;;;;;7.72;2.70;;;16.80;99.90;;;;;;5050193;28;20043;-92
2023/07/31 08:13:13;;;;;;;6.97;2.10;;;17.20;99.90;;;;;;5017001;28;20040;-95
2023/07/31 08:15:45;;;;;;;8.80;2.58;;;17.20;99.90;;;;;;5014581;28;20124;-95
2023/07/31 08:18:14;;;;;;;8.52;2.50;;;17.20;99.90;;;;;;5061540;28;20040;-95
2023/07/31 08:20:39;;;;;;;8.00;2.40;;;17.30;99.90;;;;;;5031477;28;20041;-94
2023/07/31 08:23:08;;;;;;;6.82;2.40;;;17.30;99.90;;;;;;5036019;28;20386;-93
2023/07/31 08:25:37;;;;;;;7.53;2.20;;;17.40;99.90;;;;;;5032137;28;20075;-91
2023/07/31 08:28:04;;;;;;;6.40;1.98;;;17.40;99.90;;;;;;5044930;28;20559;-92
2023/07/31 08:30:30;;;;;;;6.80;2.22;;;17.50;99.90;;;;;;5030944;28;20048;-92
2023/07/31 08:32:56;;;;;;;7.38;2.72;;;17.50;99.90;;;;;;5048954;28;20102;-93
2023/07/31 08:35:22;;;;;;;6.70;2.35;;;17.50;99.90;;;;;;5049148;28;20452;-95
2023/07/31 08:37:48;;;;;;;8.90;2.35;;;17.60;99.90;;;;;;5050137;28;20171;-91
2023/07/31 08:40:14;;;;;;;7.45;2.20;;;17.60;99.90;;;;;;5065744;28;20504;-91
2023/07/31 08:42:46;;;;;;;5.90;2.05;;;17.60;99.90;;;;;;5064771;28;20045;-91
2023/07/31 08:45:16;;;;;;;;;;;17.60;99.90;;;;;;5029262;28;20334;-92
2023/07/31 08:47:47;;;;;;;5.20;1.73;;;17.60;99.90;;;;;;5047278;28;20532;-93
2023/07/31 08:50:14;;;;;;;5.40;1.85;;;17.70;99.90;;;;;;5045011;28;20131;-91
2023/07/31 08:52:40;;;;;;;5.38;1.80;;;17.70;99.90;;;;;;5048549;28;20380;-91
2023/07/31 08:55:07;;;;;;;6.20;1.77;;;17.80;99.90;;;;;;5030023;28;20033;-90
2023/07/31 08:57:36;;;;;;;5.03;1.80;;;17.90;99.90;;;;;;5024323;28;20060;-89
2023/07/31 09:00:03;;;;;;;4.40;1.60;;;17.80;99.90;;;;;;5037188;28;20289;-91
2023/07/31 09:02:39;;;;;;;5.35;1.73;;;17.80;99.90;;;;;;5039459;28;20076;-91
2023/07/31 09:05:08;;;;;;;5.55;1.90;;;17.80;99.90;;;;;;5041733;28;20055;-94
2023/07/31 09:07:35;;;;;;;6.40;1.83;;;17.90;99.90;;;;;;5040259;28;20188;-92
2023/07/31 09:10:02;;;;;;;5.45;2.00;;;17.90;99.90;;;;;;5024792;28;20097;-92
2023/07/31 09:12:28;;;;;;;4.57;1.85;;;17.90;99.90;;;;;;5045181;28;20044;-89
2023/07/31 09:14:54;;;;;;;6.15;1.83;;;18.00;99.90;;;;;;5026216;28;20044;-92
2023/07/31 09:17:34;;;;;;;5.63;1.63;;;18.10;99.90;;;;;;5030937;28;20097;-90
2023/07/31 09:20:20;;;;;;;4.85;1.58;;;18.10;99.90;;;;;;5034703;28;20090;-91
2023/07/31 09:22:47;;;;;;;5.40;1.83;;;18.20;99.90;;;;;;5062716;28;20198;-90
2023/07/31 09:25:22;;;;;;;4.18;1.58;;;18.20;99.90;;;;;;5042573;28;20037;-90
2023/07/31 09:27:53;;;;;;;4.45;1.52;;;18.20;99.90;;;;;;5045703;28;20192;-92
2023/07/31 09:30:20;;;;;;;3.97;1.60;;;18.20;99.90;;;;;;5060646;28;20517;-90
2023/07/31 09:32:47;;;;;;;5.47;1.90;;;18.20;99.90;;;;;;5062812;28;20028;-88
2023/07/31 09:35:22;;;;;;;3.47;1.70;;;18.30;99.90;;;;;;5046120;28;20048;-90
2023/07/31 09:37:53;;;;;;;4.13;1.52;;;18.20;99.90;;;;;;5060321;28;20040;-88
2023/07/31 09:40:33;;;;;;;3.58;1.52;;;18.20;99.90;;;;;;5056317;28;20654;-87
2023/07/31 09:43:01;;;;;;;4.95;1.50;;;18.20;99.90;;;;;;5040920;28;20131;-89
2023/07/31 09:45:27;;;;;;;2.58;1.40;;;18.20;99.90;;;;;;5036910;28;20044;-92
2023/07/31 09:47:56;;;;;;;3.47;1.50;;;18.20;99.90;;;;;;5013418;28;20460;-89
2023/07/31 09:50:24;;;;;;;3.75;1.45;;;18.20;99.90;;;;;;5062774;28;20040;-94
2023/07/31 09:52:50;;;;;;;3.45;1.50;;;18.20;99.90;;;;;;5056036;28;20397;-90
2023/07/31 09:55:16;;;;;;;4.68;1.85;;;18.30;99.90;;;;;;5043114;28;20536;-88
2023/07/31 09:57:45;;;;;;;4.25;1.40;;;18.40;99.90;;;;;;5065009;28;20048;-90
2023/07/31 10:00:13;;;;;;;2.13;1.10;;;18.40;99.90;;;;;;5047268;28;20488;-89
2023/07/31 10:02:39;;;;;;;1.77;1.05;;;18.40;99.90;;;;;;5032043;28;20036;-94
2023/07/31 10:05:06;;;;;;;2.22;1.20;;;18.50;99.90;;;;;;5014921;28;20035;-92
2023/07/31 10:07:40;;;;;;;3.60;1.50;;;18.50;99.90;;;;;;5033219;28;20067;-91
2023/07/31 10:10:09;;;;;;;2.38;1.20;;;18.50;99.90;;;;;;5049298;28;20047;-94
2023/07/31 10:12:35;;;;;;;1.45;1.00;;;18.50;99.90;;;;;;5049596;28;20051;-94
2023/07/31 10:15:09;;;;;;;2.17;0.80;;;18.50;99.90;;;;;;5049418;28;20040;-95
2023/07/31 10:17:46;;;;;;;1.02;0.90;;;18.40;99.90;;;;;;5053871;28;20499;-95
2023/07/31 10:20:17;;;;;;;1.05;0.90;;;18.40;99.90;;;;;;5055828;28;20119;-94
2023/07/31 10:22:47;;;;;;;1.45;0.90;;;18.50;99.90;;;;;;5041505;28;20520;-94
2023/07/31 10:25:15;;;;;;;1.15;0.70;;;18.50;99.90;;;;;;5035221;28;20056;-95
2023/07/31 10:27:41;;;;;;;3.22;0.90;;;18.50;99.90;;;;;;5051260;28;20193;-95
2023/07/31 10:30:11;;;;;;;4.47;1.27;;;18.50;99.90;;;;;;5040102;28;20048;-94
2023/07/31 10:32:44;;;;;;;2.35;0.90;;;18.50;99.90;;;;;;5048052;28;20082;-95
2023/07/31 10:35:12;;;;;;;2.83;1.10;;;18.50;99.90;;;;;;5043200;28;20047;-95
2023/07/31 10:37:42;;;;;;;2.08;0.75;;;18.40;99.90;;;;;;5045502;28;20047;-95
2023/07/31 10:40:49;;;;;;;0.43;0.40;;;18.40;99.90;;;;;;5061281;28;20043;-93
2023/07/31 10:43:27;;;;;;;2.53;0.80;;;18.50;99.90;;;;;;4993564;28;20061;-95
2023/07/31 10:45:53;;;;;;;2.65;0.90;;;18.50;99.90;;;;;;5043576;28;20048;-95
2023/07/31 10:48:23;;;;;;;2.40;0.80;;;18.50;99.90;;;;;;5056794;28;20751;-95
2023/07/31 10:50:56;;;;;;;0.82;0.57;;;18.00;99.90;;;;;;5045907;28;20097;-96
2023/07/31 10:53:40;;;;;;;1.63;0.50;;;18.70;99.90;;;;;;5062494;28;20043;-95
2023/07/31 10:56:15;;;;;;;0.32;0.30;;;18.70;99.90;;;;;;5044646;28;20481;-96
2023/07/31 10:58:44;;;;;;;2.95;0.75;;;19.00;99.90;;;;;;5070995;28;20634;-94
2023/07/31 11:01:13;;;;;;;4.43;1.30;;;19.00;99.90;;;;;;5038808;28;20116;-95
2023/07/31 11:03:52;;;;;;;1.25;0.70;;;19.40;99.90;;;;;;5023829;28;20037;-95
2023/07/31 11:06:18;;;;;;;0.85;0.60;;;19.70;99.90;;;;;;5052932;28;20572;-89
2023/07/31 11:08:46;;;;;;;0.80;0.50;;;20.10;99.90;;;;;;5034485;28;20050;-93
2023/07/31 11:11:17;;;;;;;0.73;0.70;;;20.10;99.90;;;;;;5054173;28;20039;-92
2023/07/31 11:13:47;;;;;;;0.50;0.50;;;20.10;99.90;;;;;;5041845;28;20508;-91
2023/07/31 11:16:13;;;;;;;0.55;0.55;;;20.00;99.90;;;;;;5054847;28;20033;-92
2023/07/31 11:18:48;;;;;;;2.17;0.82;;;19.80;99.90;;;;;;5025122;28;20044;-94
2023/07/31 11:21:25;;;;;;;1.48;0.60;;;19.40;99.90;;;;;;5056821;28;20093;-94
2023/07/31 11:23:53;;;;;;;0.60;0.60;;;19.30;99.90;;;;;;5039910;28;20132;-95
2023/07/31 11:26:23;;;;;;;2.17;1.00;;;20.30;99.90;;;;;;5055599;28;20028;-96
2023/07/31 11:29:00;;;;;;;3.53;1.00;;;;;;;;;;5050986;28;20037;-96
2023/07/31 11:31:29;;;;;;;1.60;0.93;;;19.10;99.90;;;;;;5058055;28;20048;-95
2023/07/31 11:34:08;;;;;;;1.80;1.00;;;19.10;99.90;;;;;;5057261;28;20052;-93
2023/07/31 11:36:36;;;;;;;1.58;1.02;;;19.30;99.90;;;;;;5057618;28;20059;-94
2023/07/31 11:39:10;;;;;;;2.42;1.00;;;19.50;99.90;;;;;;5038520;28;20047;-94
2023/07/31 11:41:35;;;;;;;3.08;1.30;;;19.50;99.90;;;;;;5053416;28;20043;-94
2023/07/31 11:44:01;;;;;;;3.00;1.10;;;19.50;99.90;;;;;;5039330;28;20040;-94
2023/07/31 11:46:30;;;;;;;3.15;1.20;;;19.50;99.90;;;;;;5055799;28;20512;-94
2023/07/31 11:49:00;;;;;;;2.80;1.00;;;19.50;99.90;;;;;;5039962;28;20047;-96
2023/07/31 11:51:29;;;;;;;3.05;1.30;;;19.40;99.90;;;;;;5052660;28;20115;-94
2023/07/31 11:53:59;;;;;;;4.57;1.38;;;19.30;99.90;;;;;;5048696;28;20041;-92
2023/07/31 11:56:29;;;;;;;1.63;1.10;;;19.20;99.90;;;;;;5056926;28;20062;-92
2023/07/31 11:59:05;;;;;;;3.47;1.10;;;19.00;99.90;;;;;;5075414;28;20044;-96
2023/07/31 12:01:32;;;;;;;4.13;1.35;;;19.00;99.90;;;;;;5044054;28;20075;-94
2023/07/31 12:03:58;;;;;;;2.92;1.45;;;18.90;99.90;;;;;;5041737;28;20512;-93
2023/07/31 12:06:36;;;;;;;1.73;1.25;;;19.00;99.90;;;;;;5021407;28;20052;-93
2023/07/31 12:09:06;;;;;;;2.95;1.23;;;19.10;99.90;;;;;;5040545;28;20478;-95
2023/07/31 12:11:42;;;;;;;2.72;1.30;;;19.10;99.90;;;;;;5056267;28;20040;-95
2023/07/31 12:14:09;;;;;;;2.65;1.25;;;19.10;99.90;;;;;;5036572;28;20045;-93
2023/07/31 12:16:35;;;;;;;3.92;1.48;;;19.10;99.90;;;;;;5053970;28;20033;-93
2023/07/31 12:19:01;;;;;;;2.88;1.20;;;19.10;99.90;;;;;;5071309;28;20047;-94
2023/07/31 12:21:27;;;;;;;4.28;1.40;;;19.20;99.90;;;;;;5054843;28;20040;-92
2023/07/31 12:27:35;;;;;;;4.97;1.50;;;19.30;99.90;;;;;;4955116;28;20049;-94
2023/07/31 12:30:31;;;;;;;2.78;1.30;;;19.40;99.90;;;;;;4999673;28;20069;-96
2023/07/31 12:33:13;;;;;;;3.20;1.55;;;19.40;99.90;;;;;;4998651;28;20406;-94
2023/07/31 12:35:46;;;;;;;5.70;1.58;;;19.60;99.90;;;;;;4997124;28;20041;-92
2023/07/31 12:38:23;;;;;;;5.05;1.80;;;19.60;99.90;;;;;;4998052;28;20541;-93
2023/07/31 12:44:22;;;;;;;7.80;1.80;;;19.60;99.90;;;;;;5013307;28;20040;-92
2023/07/31 12:46:51;;;;;;;5.13;1.60;;;;;;;;;;5024814;28;20045;-91
2023/07/31 12:49:17;;;;;;;2.33;1.30;;;19.60;99.90;;;;;;5033851;28;20095;-93
2023/07/31 12:51:42;;;;;;;3.47;1.50;;;19.60;99.90;;;;;;5018003;28;20452;-94
2023/07/31 12:54:08;;;;;;;5.22;1.65;;;19.70;99.90;;;;;;5021004;28;20115;-93
2023/07/31 12:56:34;;;;;;;3.00;1.30;;;19.70;99.90;;;;;;5034583;28;20527;-91
2023/07/31 12:58:59;;;;;;;5.10;1.70;;;19.70;99.90;;;;;;5035262;28;20102;-91